KBDR

Igor I Sikorsky Memorial Airport

Bridgeport, Connecticut, USA
METAR KBDR 180252Z 05004KT 10SM SCT120 00/M09 A3025 RMK AO2 SLP243 T00001094 58008
Observed Flight Rules
Dec-18 @ 02:52 UTC (18 minutes ago) Visual Flight Rules
Wind Visibility Clouds
50° at 4 knots 10 miles
  • Scattered at 12,000' AGL
Temperatures Readings
Current 0°C / 32°F
Dewpoint -9°C / 16°F
Humidity 51%
Altimeter 30.25" Hg
Pressure 1024.3 hPa
Elevation 7
METAR KBDR 180252Z 05004KT 10SM SCT120 00/M09 A3025 RMK AO2 SLP243 T00001094 58008
Observed Flight Rules
Dec-18 @ 02:52 UTC
(18 minutes ago)
VFR
Wind Visibility
50° at 4 knots 10 miles
Clouds
  • Scattered at 12,000' AGL
Temperature Dewpoint
0°C / 32°F -9°C / 16°F
Humidity Altimeter Pressure
51% 30.25" Hg 1024.3 hPa